sensor_id;sensor_type;location;lat;lon;timestamp;pressure;altitude;pressure_sealevel;temperature;humidity
12195;BME280;27023;42.680;23.132;2022-07-29T00:01:30;92389.41;;;16.34;100.00
12195;BME280;27023;42.680;23.132;2022-07-29T00:03:57;92378.38;;;16.32;100.00
12195;BME280;27023;42.680;23.132;2022-07-29T00:06:23;92365.81;;;16.25;100.00
12195;BME280;27023;42.680;23.132;2022-07-29T00:08:51;92373.78;;;16.21;100.00
12195;BME280;27023;42.680;23.132;2022-07-29T00:11:18;92377.97;;;16.26;100.00
12195;BME280;27023;42.680;23.132;2022-07-29T00:13:45;92379.47;;;16.20;100.00
12195;BME280;27023;42.680;23.132;2022-07-29T00:16:11;92379.84;;;16.18;100.00
12195;BME280;27023;42.680;23.132;2022-07-29T00:18:38;92384.88;;;16.38;100.00
12195;BME280;27023;42.680;23.132;2022-07-29T00:21:05;92381.00;;;16.21;100.00
12195;BME280;27023;42.680;23.132;2022-07-29T00:23:32;92383.66;;;16.25;100.00
12195;BME280;27023;42.680;23.132;2022-07-29T00:26:01;92388.91;;;16.07;100.00
12195;BME280;27023;42.680;23.132;2022-07-29T00:28:28;92389.31;;;16.12;100.00
12195;BME280;27023;42.680;23.132;2022-07-29T00:30:55;92396.53;;;16.12;100.00
12195;BME280;27023;42.680;23.132;2022-07-29T00:33:21;92391.22;;;16.15;100.00
12195;BME280;27023;42.680;23.132;2022-07-29T00:35:49;92388.16;;;16.13;100.00
12195;BME280;27023;42.680;23.132;2022-07-29T00:38:17;92388.59;;;16.26;100.00
12195;BME280;27023;42.680;23.132;2022-07-29T00:40:46;92383.38;;;16.37;100.00
12195;BME280;27023;42.680;23.132;2022-07-29T00:43:14;92387.63;;;16.56;100.00
12195;BME280;27023;42.680;23.132;2022-07-29T00:45:42;92378.38;;;16.32;100.00
12195;BME280;27023;42.680;23.132;2022-07-29T00:48:09;92370.34;;;16.21;100.00
12195;BME280;27023;42.680;23.132;2022-07-29T00:50:36;92376.47;;;16.32;100.00
12195;BME280;27023;42.680;23.132;2022-07-29T00:53:04;92373.06;;;16.32;100.00
12195;BME280;27023;42.680;23.132;2022-07-29T00:55:31;92360.50;;;16.29;100.00
12195;BME280;27023;42.680;23.132;2022-07-29T00:57:59;92360.53;;;16.32;100.00
12195;BME280;27023;42.680;23.132;2022-07-29T01:00:28;92358.22;;;16.27;100.00
12195;BME280;27023;42.680;23.132;2022-07-29T01:02:55;92352.13;;;16.27;100.00
12195;BME280;27023;42.680;23.132;2022-07-29T01:05:23;92343.78;;;16.25;100.00
12195;BME280;27023;42.680;23.132;2022-07-29T01:07:53;92349.06;;;16.17;100.00
12195;BME280;27023;42.680;23.132;2022-07-29T01:10:20;92349.81;;;16.14;100.00
12195;BME280;27023;42.680;23.132;2022-07-29T01:12:49;92346.75;;;16.09;100.00
12195;BME280;27023;42.680;23.132;2022-07-29T01:15:17;92355.84;;;16.04;100.00
12195;BME280;27023;42.680;23.132;2022-07-29T01:17:50;92348.97;;;16.00;100.00
12195;BME280;27023;42.680;23.132;2022-07-29T01:20:25;92352.00;;;15.98;100.00
12195;BME280;27023;42.680;23.132;2022-07-29T01:23:25;92348.97;;;15.96;100.00
12195;BME280;27023;42.680;23.132;2022-07-29T01:26:34;92352.41;;;16.00;100.00
12195;BME280;27023;42.680;23.132;2022-07-29T01:29:12;92346.66;;;15.91;100.00
12195;BME280;27023;42.680;23.132;2022-07-29T01:31:43;92344.72;;;15.84;100.00
12195;BME280;27023;42.680;23.132;2022-07-29T01:34:17;92354.97;;;15.86;100.00
12195;BME280;27023;42.680;23.132;2022-07-29T01:36:47;92348.09;;;15.78;100.00
12195;BME280;27023;42.680;23.132;2022-07-29T01:39:18;92354.22;;;15.85;100.00
12195;BME280;27023;42.680;23.132;2022-07-29T01:42:06;92351.56;;;15.85;100.00
12195;BME280;27023;42.680;23.132;2022-07-29T01:44:39;92352.72;;;15.92;100.00
12195;BME280;27023;42.680;23.132;2022-07-29T01:47:13;92344.03;;;15.98;100.00
12195;BME280;27023;42.680;23.132;2022-07-29T01:49:46;92349.75;;;16.00;100.00
12195;BME280;27023;42.680;23.132;2022-07-29T01:52:20;92345.19;;;16.01;100.00
12195;BME280;27023;42.680;23.132;2022-07-29T01:54:52;92336.44;;;16.00;100.00
12195;BME280;27023;42.680;23.132;2022-07-29T01:57:25;92337.59;;;16.03;100.00
12195;BME280;27023;42.680;23.132;2022-07-29T01:59:54;92332.69;;;16.05;100.00
12195;BME280;27023;42.680;23.132;2022-07-29T02:02:23;92330.03;;;16.08;100.00
12195;BME280;27023;42.680;23.132;2022-07-29T02:04:52;92328.94;;;16.16;100.00
12195;BME280;27023;42.680;23.132;2022-07-29T02:07:22;92320.91;;;16.09;100.00
12195;BME280;27023;42.680;23.132;2022-07-29T02:09:50;92327.78;;;16.17;100.00
12195;BME280;27023;42.680;23.132;2022-07-29T02:12:19;92321.69;;;16.13;100.00
12195;BME280;27023;42.680;23.132;2022-07-29T02:14:48;92324.75;;;16.15;100.00
12195;BME280;27023;42.680;23.132;2022-07-29T02:17:21;92317.53;;;16.16;100.00
12195;BME280;27023;42.680;23.132;2022-07-29T02:19:49;92322.47;;;16.17;100.00
12195;BME280;27023;42.680;23.132;2022-07-29T02:22:18;92324.00;;;16.18;100.00
12195;BME280;27023;42.680;23.132;2022-07-29T02:24:46;92317.91;;;16.14;100.00
12195;BME280;27023;42.680;23.132;2022-07-29T02:27:15;92320.59;;;16.21;100.00
12195;BME280;27023;42.680;23.132;2022-07-29T02:29:45;92319.44;;;16.15;100.00
12195;BME280;27023;42.680;23.132;2022-07-29T02:32:13;92312.59;;;16.14;100.00
12195;BME280;27023;42.680;23.132;2022-07-29T02:34:43;92304.22;;;16.12;100.00
12195;BME280;27023;42.680;23.132;2022-07-29T02:37:11;92305.75;;;16.20;100.00
12195;BME280;27023;42.680;23.132;2022-07-29T02:39:41;92303.50;;;16.23;100.00
12195;BME280;27023;42.680;23.132;2022-07-29T02:42:13;92305.78;;;16.24;100.00
12195;BME280;27023;42.680;23.132;2022-07-29T02:44:41;92313.34;;;16.18;100.00
12195;BME280;27023;42.680;23.132;2022-07-29T02:47:13;92305.75;;;16.20;100.00
12195;BME280;27023;42.680;23.132;2022-07-29T02:49:49;92311.81;;;16.10;100.00
12195;BME280;27023;42.680;23.132;2022-07-29T02:52:22;92301.91;;;16.04;100.00
12195;BME280;27023;42.680;23.132;2022-07-29T02:54:53;92306.09;;;16.08;100.00
12195;BME280;27023;42.680;23.132;2022-07-29T02:57:25;92292.78;;;16.01;100.00
12195;BME280;27023;42.680;23.132;2022-07-29T02:59:57;92298.84;;;15.98;100.00
12195;BME280;27023;42.680;23.132;2022-07-29T03:02:25;92304.56;;;16.04;100.00
12195;BME280;27023;42.680;23.132;2022-07-29T03:04:55;92305.66;;;15.96;100.00
12195;BME280;27023;42.680;23.132;2022-07-29T03:07:22;92310.25;;;15.99;100.00
12195;BME280;27023;42.680;23.132;2022-07-29T03:09:49;92306.50;;;16.10;100.00
12195;BME280;27023;42.680;23.132;2022-07-29T03:12:17;92314.88;;;16.19;100.00
12195;BME280;27023;42.680;23.132;2022-07-29T03:14:44;92310.31;;;16.16;100.00
12195;BME280;27023;42.680;23.132;2022-07-29T03:17:13;92316.38;;;16.13;100.00
12195;BME280;27023;42.680;23.132;2022-07-29T03:19:40;92312.53;;;16.04;100.00
12195;BME280;27023;42.680;23.132;2022-07-29T03:22:09;92317.41;;;15.91;100.00
12195;BME280;27023;42.680;23.132;2022-07-29T03:24:36;92314.72;;;15.80;100.00
12195;BME280;27023;42.680;23.132;2022-07-29T03:27:04;92323.06;;;15.79;100.00
12195;BME280;27023;42.680;23.132;2022-07-29T03:29:31;92324.56;;;15.76;100.00
12195;BME280;27023;42.680;23.132;2022-07-29T03:31:58;92330.28;;;15.82;100.00
12195;BME280;27023;42.680;23.132;2022-07-29T03:34:24;92328.44;;;15.93;100.00
12195;BME280;27023;42.680;23.132;2022-07-29T03:36:51;92333.13;;;16.25;100.00
12195;BME280;27023;42.680;23.132;2022-07-29T03:39:22;92338.72;;;15.98;100.00
12195;BME280;27023;42.680;23.132;2022-07-29T03:41:53;92325.81;;;16.00;100.00
12195;BME280;27023;42.680;23.132;2022-07-29T03:44:21;92324.34;;;16.13;100.00
12195;BME280;27023;42.680;23.132;2022-07-29T03:46:49;92328.94;;;16.20;100.00
12195;BME280;27023;42.680;23.132;2022-07-29T03:49:18;92325.41;;;15.95;100.00
12195;BME280;27023;42.680;23.132;2022-07-29T03:51:46;92317.41;;;15.91;100.00
12195;BME280;27023;42.680;23.132;2022-07-29T03:54:13;92316.69;;;15.98;100.00
12195;BME280;27023;42.680;23.132;2022-07-29T03:56:43;92318.63;;;16.04;100.00
12195;BME280;27023;42.680;23.132;2022-07-29T03:59:13;92315.66;;;16.20;100.00
12195;BME280;27023;42.680;23.132;2022-07-29T04:01:42;92319.44;;;16.19;100.00
12195;BME280;27023;42.680;23.132;2022-07-29T04:04:09;92319.41;;;16.08;100.00
12195;BME280;27023;42.680;23.132;2022-07-29T04:06:38;92327.38;;;16.08;100.00
12195;BME280;27023;42.680;23.132;2022-07-29T04:09:05;92326.59;;;16.04;100.00
12195;BME280;27023;42.680;23.132;2022-07-29T04:11:32;92322.44;;;16.07;100.00
12195;BME280;27023;42.680;23.132;2022-07-29T04:14:01;92327.00;;;16.13;100.00
12195;BME280;27023;42.680;23.132;2022-07-29T04:16:28;92326.25;;;16.13;100.00
12195;BME280;27023;42.680;23.132;2022-07-29T04:18:54;92325.91;;;16.25;100.00
12195;BME280;27023;42.680;23.132;2022-07-29T04:21:21;92317.16;;;16.17;100.00
12195;BME280;27023;42.680;23.132;2022-07-29T04:23:48;92325.53;;;16.23;100.00
12195;BME280;27023;42.680;23.132;2022-07-29T04:26:15;92322.53;;;16.32;100.00
12195;BME280;27023;42.680;23.132;2022-07-29T04:28:42;92333.63;;;16.48;100.00
12195;BME280;27023;42.680;23.132;2022-07-29T04:31:11;92340.47;;;16.49;100.00
12195;BME280;27023;42.680;23.132;2022-07-29T04:33:38;92343.13;;;16.49;100.00
12195;BME280;27023;42.680;23.132;2022-07-29T04:36:05;92344.63;;;16.43;100.00
12195;BME280;27023;42.680;23.132;2022-07-29T04:38:32;92337.72;;;16.35;100.00
12195;BME280;27023;42.680;23.132;2022-07-29T04:40:58;92346.50;;;16.39;100.00
12195;BME280;27023;42.680;23.132;2022-07-29T04:43:25;92342.75;;;16.54;100.00
12195;BME280;27023;42.680;23.132;2022-07-29T04:45:52;92343.50;;;16.51;100.00
12195;BME280;27023;42.680;23.132;2022-07-29T04:48:20;92342.41;;;16.63;100.00
12195;BME280;27023;42.680;23.132;2022-07-29T04:50:46;92348.94;;;16.83;100.00
12195;BME280;27023;42.680;23.132;2022-07-29T04:53:19;92351.22;;;16.88;100.00
12195;BME280;27023;42.680;23.132;2022-07-29T04:55:46;92350.09;;;17.00;100.00
12195;BME280;27023;42.680;23.132;2022-07-29T04:58:13;92358.53;;;17.23;100.00
12195;BME280;27023;42.680;23.132;2022-07-29T05:00:40;92358.53;;;17.23;100.00
12195;BME280;27023;42.680;23.132;2022-07-29T05:03:06;92356.25;;;17.25;100.00
12195;BME280;27023;42.680;23.132;2022-07-29T05:05:35;92356.63;;;17.48;100.00
12195;BME280;27023;42.680;23.132;2022-07-29T05:08:01;92357.00;;;17.58;100.00
12195;BME280;27023;42.680;23.132;2022-07-29T05:10:28;92350.94;;;17.68;100.00
12195;BME280;27023;42.680;23.132;2022-07-29T05:12:55;92351.31;;;17.88;100.00
12195;BME280;27023;42.680;23.132;2022-07-29T05:15:21;92349.75;;;17.97;100.00
12195;BME280;27023;42.680;23.132;2022-07-29T05:17:48;92354.69;;;18.02;100.00
12195;BME280;27023;42.680;23.132;2022-07-29T05:20:15;92350.06;;;18.21;100.00
12195;BME280;27023;42.680;23.132;2022-07-29T05:22:45;92364.06;;;18.50;100.00
12195;BME280;27023;42.680;23.132;2022-07-29T05:25:11;92364.03;;;18.71;100.00
12195;BME280;27023;42.680;23.132;2022-07-29T05:27:38;92365.06;;;18.91;100.00
12195;BME280;27023;42.680;23.132;2022-07-29T05:30:06;92376.44;;;19.02;100.00
12195;BME280;27023;42.680;23.132;2022-07-29T05:32:32;92376.38;;;19.13;100.00
12195;BME280;27023;42.680;23.132;2022-07-29T05:34:59;92374.84;;;19.12;100.00
12195;BME280;27023;42.680;23.132;2022-07-29T05:37:26;92379.47;;;19.08;100.00
12195;BME280;27023;42.680;23.132;2022-07-29T05:39:54;92388.91;;;19.23;100.00
12195;BME280;27023;42.680;23.132;2022-07-29T05:42:21;92383.84;;;19.40;100.00
12195;BME280;27023;42.680;23.132;2022-07-29T05:44:47;92396.38;;;19.50;100.00
12195;BME280;27023;42.680;23.132;2022-07-29T05:47:14;92390.66;;;19.55;100.00
12195;BME280;27023;42.680;23.132;2022-07-29T05:49:41;92390.97;;;19.64;100.00
12195;BME280;27023;42.680;23.132;2022-07-29T05:52:08;92390.16;;;19.67;100.00
12195;BME280;27023;42.680;23.132;2022-07-29T05:54:35;92393.94;;;19.73;100.00
12195;BME280;27023;42.680;23.132;2022-07-29T05:57:03;92392.72;;;19.81;100.00
12195;BME280;27023;42.680;23.132;2022-07-29T05:59:30;92396.13;;;19.85;100.00
12195;BME280;27023;42.680;23.132;2022-07-29T06:01:57;92397.22;;;19.91;100.00
12195;BME280;27023;42.680;23.132;2022-07-29T06:04:25;92398.66;;;19.99;100.00
12195;BME280;27023;42.680;23.132;2022-07-29T06:06:52;92401.69;;;20.05;100.00
12195;BME280;27023;42.680;23.132;2022-07-29T06:09:19;92402.03;;;20.11;100.00
12195;BME280;27023;42.680;23.132;2022-07-29T06:11:45;92399.75;;;20.09;100.00
12195;BME280;27023;42.680;23.132;2022-07-29T06:14:13;92399.22;;;20.25;100.00
12195;BME280;27023;42.680;23.132;2022-07-29T06:16:40;92400.66;;;20.33;100.00
12195;BME280;27023;42.680;23.132;2022-07-29T06:19:07;92400.97;;;20.39;100.00
12195;BME280;27023;42.680;23.132;2022-07-29T06:21:34;92402.91;;;20.38;100.00
12195;BME280;27023;42.680;23.132;2022-07-29T06:24:01;92400.66;;;20.33;100.00
12195;BME280;27023;42.680;23.132;2022-07-29T06:26:28;92404.38;;;20.46;100.00
12195;BME280;27023;42.680;23.132;2022-07-29T06:28:54;92400.63;;;20.40;100.00
12195;BME280;27023;42.680;23.132;2022-07-29T06:31:22;92399.34;;;20.52;100.00
12195;BME280;27023;42.680;23.132;2022-07-29T06:33:49;92402.19;;;20.34;100.00
12195;BME280;27023;42.680;23.132;2022-07-29T06:36:16;92398.34;;;20.35;100.00
12195;BME280;27023;42.680;23.132;2022-07-29T06:38:42;92395.31;;;20.33;100.00
12195;BME280;27023;42.680;23.132;2022-07-29T06:41:09;92394.38;;;20.50;100.00
12195;BME280;27023;42.680;23.132;2022-07-29T06:43:39;92400.34;;;20.65;100.00
12195;BME280;27023;42.680;23.132;2022-07-29T06:46:08;92397.97;;;20.71;100.00
12195;BME280;27023;42.680;23.132;2022-07-29T06:48:38;92405.50;;;20.83;100.00
12195;BME280;27023;42.680;23.132;2022-07-29T06:51:05;92402.75;;;20.90;100.00
12195;BME280;27023;42.680;23.132;2022-07-29T06:53:33;92403.75;;;21.00;100.00
12195;BME280;27023;42.680;23.132;2022-07-29T06:56:00;92397.19;;;20.36;100.00
12195;BME280;27023;42.680;23.132;2022-07-29T06:58:28;92398.41;;;20.66;100.00
12195;BME280;27023;42.680;23.132;2022-07-29T07:00:57;92402.75;;;20.90;100.00
12195;BME280;27023;42.680;23.132;2022-07-29T07:03:24;92408.75;;;20.98;100.00
12195;BME280;27023;42.680;23.132;2022-07-29T07:05:53;92395.47;;;20.56;100.00
12195;BME280;27023;42.680;23.132;2022-07-29T07:08:21;92403.44;;;20.94;100.00
12195;BME280;27023;42.680;23.132;2022-07-29T07:10:49;92400.28;;;21.03;100.00
12195;BME280;27023;42.680;23.132;2022-07-29T07:13:15;92397.28;;;21.28;100.00
12195;BME280;27023;42.680;23.132;2022-07-29T07:15:42;92399.50;;;21.33;100.00
12195;BME280;27023;42.680;23.132;2022-07-29T07:18:10;92406.06;;;21.55;100.00
12195;BME280;27023;42.680;23.132;2022-07-29T07:20:36;92410.50;;;21.69;100.00
12195;BME280;27023;42.680;23.132;2022-07-29T07:23:05;92414.34;;;21.68;100.00
12195;BME280;27023;42.680;23.132;2022-07-29T07:25:31;92412.13;;;21.63;100.00
12195;BME280;27023;42.680;23.132;2022-07-29T07:27:58;92412.88;;;21.63;100.00
12195;BME280;27023;42.680;23.132;2022-07-29T07:30:25;92407.88;;;21.65;100.00
12195;BME280;27023;42.680;23.132;2022-07-29T07:32:52;92399.59;;;21.79;100.00
12195;BME280;27023;42.680;23.132;2022-07-29T07:35:19;92404.84;;;21.86;100.00
12195;BME280;27023;42.680;23.132;2022-07-29T07:37:46;92401.41;;;21.86;100.00
12195;BME280;27023;42.680;23.132;2022-07-29T07:40:14;92400.53;;;21.93;100.00
12195;BME280;27023;42.680;23.132;2022-07-29T07:42:41;92403.09;;;21.76;100.00
12195;BME280;27023;42.680;23.132;2022-07-29T07:45:09;92401.56;;;21.99;100.00
12195;BME280;27023;42.680;23.132;2022-07-29T07:47:36;92395.09;;;21.96;100.00
12195;BME280;27023;42.680;23.132;2022-07-29T07:50:03;92407.25;;;22.04;100.00
12195;BME280;27023;42.680;23.132;2022-07-29T07:52:30;92400.75;;;22.02;100.00
12195;BME280;27023;42.680;23.132;2022-07-29T07:54:57;92400.75;;;22.02;100.00
12195;BME280;27023;42.680;23.132;2022-07-29T07:57:25;92402.25;;;22.06;100.00
12195;BME280;27023;42.680;23.132;2022-07-29T07:59:52;92404.41;;;22.15;100.00
12195;BME280;27023;42.680;23.132;2022-07-29T08:02:18;92401.66;;;22.18;100.00
12195;BME280;27023;42.680;23.132;2022-07-29T08:04:45;92411.97;;;22.20;100.00
12195;BME280;27023;42.680;23.132;2022-07-29T08:07:12;92403.91;;;22.43;100.00
12195;BME280;27023;42.680;23.132;2022-07-29T08:09:40;92414.75;;;22.60;100.00
12195;BME280;27023;42.680;23.132;2022-07-29T08:12:07;92411.38;;;22.75;100.00
12195;BME280;27023;42.680;23.132;2022-07-29T08:14:35;92417.97;;;22.71;100.00
12195;BME280;27023;42.680;23.132;2022-07-29T08:17:02;92416.41;;;22.73;100.00
12195;BME280;27023;42.680;23.132;2022-07-29T08:19:29;92414.97;;;22.89;100.00
12195;BME280;27023;42.680;23.132;2022-07-29T08:21:56;92411.84;;;22.70;100.00
12195;BME280;27023;42.680;23.132;2022-07-29T08:24:22;92412.88;;;22.76;100.00
12195;BME280;27023;42.680;23.132;2022-07-29T08:27:06;92414.56;;;22.90;100.00
12195;BME280;27023;42.680;23.132;2022-07-29T08:29:35;92411.88;;;22.90;100.00
12195;BME280;27023;42.680;23.132;2022-07-29T08:32:02;92420.47;;;23.01;100.00
12195;BME280;27023;42.680;23.132;2022-07-29T08:34:29;92412.28;;;23.08;100.00
12195;BME280;27023;42.680;23.132;2022-07-29T08:36:55;92412.34;;;23.25;100.00
12195;BME280;27023;42.680;23.132;2022-07-29T08:39:22;92414.03;;;23.35;100.00
12195;BME280;27023;42.680;23.132;2022-07-29T08:41:50;92402.09;;;23.36;100.00
12195;BME280;27023;42.680;23.132;2022-07-29T08:44:17;92410.91;;;23.56;100.00
12195;BME280;27023;42.680;23.132;2022-07-29T08:46:46;92405.94;;;23.71;100.00
12195;BME280;27023;42.680;23.132;2022-07-29T08:49:13;92403.03;;;23.82;100.00
12195;BME280;27023;42.680;23.132;2022-07-29T08:51:40;92404.34;;;23.57;100.00
12195;BME280;27023;42.680;23.132;2022-07-29T08:54:11;92404.47;;;23.86;100.00
12195;BME280;27023;42.680;23.132;2022-07-29T08:56:43;92400.84;;;23.93;100.00
12195;BME280;27023;42.680;23.132;2022-07-29T08:59:10;92396.88;;;23.97;100.00
12195;BME280;27023;42.680;23.132;2022-07-29T09:01:38;92400.97;;;24.34;100.00
12195;BME280;27023;42.680;23.132;2022-07-29T09:04:10;92396.91;;;24.59;100.00
12195;BME280;27023;42.680;23.132;2022-07-29T09:06:42;92400.50;;;24.68;100.00
12195;BME280;27023;42.680;23.132;2022-07-29T09:09:09;92399.09;;;24.64;100.00
12195;BME280;27023;42.680;23.132;2022-07-29T09:11:36;92407.53;;;24.79;100.00
12195;BME280;27023;42.680;23.132;2022-07-29T09:14:03;92405.34;;;25.02;100.00
12195;BME280;27023;42.680;23.132;2022-07-29T09:16:47;92402.38;;;24.84;98.19
12195;BME280;27023;42.680;23.132;2022-07-29T09:19:26;92403.00;;;25.05;99.64
12195;BME280;27023;42.680;23.132;2022-07-29T09:21:57;92401.06;;;24.76;100.00
12195;BME280;27023;42.680;23.132;2022-07-29T09:24:23;92395.19;;;24.94;94.53
12195;BME280;27023;42.680;23.132;2022-07-29T09:26:50;92401.38;;;25.07;99.38
12195;BME280;27023;42.680;23.132;2022-07-29T09:29:18;92391.22;;;25.65;91.95
12195;BME280;27023;42.680;23.132;2022-07-29T09:31:47;92392.00;;;26.60;83.48
12195;BME280;27023;42.680;23.132;2022-07-29T09:34:15;92389.56;;;26.75;79.36
12195;BME280;27023;42.680;23.132;2022-07-29T09:36:45;92391.50;;;26.53;81.16
12195;BME280;27023;42.680;23.132;2022-07-29T09:39:13;92392.53;;;26.34;85.79
12195;BME280;27023;42.680;23.132;2022-07-29T09:41:47;92385.16;;;25.87;84.15
12195;BME280;27023;42.680;23.132;2022-07-29T09:44:15;92388.94;;;25.77;83.43
12195;BME280;27023;42.680;23.132;2022-07-29T09:46:56;92383.09;;;25.91;77.71
12195;BME280;27023;42.680;23.132;2022-07-29T09:49:24;92384.72;;;25.88;84.19
12195;BME280;27023;42.680;23.132;2022-07-29T09:52:10;92375.50;;;25.98;83.70
12195;BME280;27023;42.680;23.132;2022-07-29T09:54:37;92377.00;;;26.12;87.06
12195;BME280;27023;42.680;23.132;2022-07-29T09:57:04;92368.09;;;26.37;77.92
12195;BME280;27023;42.680;23.132;2022-07-29T09:59:33;92360.63;;;26.63;78.44
12195;BME280;27023;42.680;23.132;2022-07-29T10:02:00;92363.94;;;26.80;81.38
12195;BME280;27023;42.680;23.132;2022-07-29T10:04:38;92368.72;;;26.76;81.59
12195;BME280;27023;42.680;23.132;2022-07-29T10:07:05;92364.84;;;26.64;78.70
12195;BME280;27023;42.680;23.132;2022-07-29T10:09:34;92358.66;;;26.76;76.96
12195;BME280;27023;42.680;23.132;2022-07-29T10:12:06;92346.72;;;27.79;71.48
12195;BME280;27023;42.680;23.132;2022-07-29T10:14:33;92348.66;;;29.53;62.85
12195;BME280;27023;42.680;23.132;2022-07-29T10:17:00;92324.56;;;32.33;55.85
12195;BME280;27023;42.680;23.132;2022-07-29T10:19:28;92315.41;;;35.66;41.18
12195;BME280;27023;42.680;23.132;2022-07-29T10:21:56;92319.97;;;38.82;37.34
12195;BME280;27023;42.680;23.132;2022-07-29T10:24:24;92305.22;;;38.55;37.69
12195;BME280;27023;42.680;23.132;2022-07-29T10:26:54;92302.75;;;39.64;34.31
12195;BME280;27023;42.680;23.132;2022-07-29T10:29:21;92292.50;;;42.63;29.13
12195;BME280;27023;42.680;23.132;2022-07-29T10:31:55;92293.41;;;43.02;28.34
12195;BME280;27023;42.680;23.132;2022-07-29T10:34:33;92279.50;;;45.73;24.62
12195;BME280;27023;42.680;23.132;2022-07-29T10:37:07;92276.19;;;45.67;23.52
12195;BME280;27023;42.680;23.132;2022-07-29T10:39:53;92277.47;;;43.54;26.29
12195;BME280;27023;42.680;23.132;2022-07-29T10:42:27;92270.28;;;44.19;26.97
12195;BME280;27023;42.680;23.132;2022-07-29T10:44:56;92267.22;;;46.95;21.98
12195;BME280;27023;42.680;23.132;2022-07-29T10:47:24;92263.91;;;47.87;22.33
12195;BME280;27023;42.680;23.132;2022-07-29T10:49:56;92249.66;;;47.92;20.80
12195;BME280;27023;42.680;23.132;2022-07-29T10:52:23;92243.66;;;47.32;22.92
12195;BME280;27023;42.680;23.132;2022-07-29T10:54:53;92243.59;;;46.78;23.45
12195;BME280;27023;42.680;23.132;2022-07-29T10:57:27;92231.97;;;43.64;24.38
12195;BME280;27023;42.680;23.132;2022-07-29T11:00:26;92234.88;;;40.67;29.66
12195;BME280;27023;42.680;23.132;2022-07-29T11:02:54;92234.44;;;35.76;40.55
12195;BME280;27023;42.680;23.132;2022-07-29T11:05:23;92238.97;;;35.34;36.11
12195;BME280;27023;42.680;23.132;2022-07-29T11:08:16;92232.19;;;33.55;43.15
12195;BME280;27023;42.680;23.132;2022-07-29T11:10:45;92236.69;;;31.68;49.70
12195;BME280;27023;42.680;23.132;2022-07-29T11:16:20;92241.69;;;31.19;53.85
12195;BME280;27023;42.680;23.132;2022-07-29T11:19:19;92235.69;;;30.56;51.15
12195;BME280;27023;42.680;23.132;2022-07-29T11:21:47;92239.56;;;30.64;55.89
12195;BME280;27023;42.680;23.132;2022-07-29T11:24:16;92237.28;;;30.10;58.36
12195;BME280;27023;42.680;23.132;2022-07-29T11:26:43;92241.34;;;29.00;59.93
12195;BME280;27023;42.680;23.132;2022-07-29T11:29:19;92234.50;;;29.14;59.43
12195;BME280;27023;42.680;23.132;2022-07-29T11:31:49;92226.22;;;29.41;53.91
12195;BME280;27023;42.680;23.132;2022-07-29T11:34:22;92231.06;;;29.37;58.67
12195;BME280;27023;42.680;23.132;2022-07-29T11:37:14;92230.34;;;29.85;57.20
12195;BME280;27023;42.680;23.132;2022-07-29T11:39:42;92229.78;;;29.81;54.65
12195;BME280;27023;42.680;23.132;2022-07-29T11:42:39;92230.97;;;28.71;62.42
12195;BME280;27023;42.680;23.132;2022-07-29T11:45:08;92223.84;;;29.34;64.01
12195;BME280;27023;42.680;23.132;2022-07-29T11:47:38;92219.19;;;29.59;61.56
12195;BME280;27023;42.680;23.132;2022-07-29T11:50:07;92226.22;;;29.75;55.43
12195;BME280;27023;42.680;23.132;2022-07-29T11:52:36;92218.13;;;28.81;63.25
12195;BME280;27023;42.680;23.132;2022-07-29T11:55:20;92225.22;;;28.78;64.67
12195;BME280;27023;42.680;23.132;2022-07-29T11:57:49;92223.81;;;28.50;71.60
12195;BME280;27023;42.680;23.132;2022-07-29T12:00:28;92218.69;;;27.97;69.19
12195;BME280;27023;42.680;23.132;2022-07-29T12:02:56;92221.09;;;27.77;68.82
12195;BME280;27023;42.680;23.132;2022-07-29T12:05:31;92214.56;;;26.98;71.08
12195;BME280;27023;42.680;23.132;2022-07-29T12:08:08;92228.50;;;26.65;76.50
12195;BME280;27023;42.680;23.132;2022-07-29T12:10:35;92219.34;;;26.94;80.03
12195;BME280;27023;42.680;23.132;2022-07-29T12:13:03;92222.94;;;26.90;84.88
12195;BME280;27023;42.680;23.132;2022-07-29T12:15:31;92222.44;;;26.52;84.35
12195;BME280;27023;42.680;23.132;2022-07-29T12:17:58;92221.25;;;26.09;82.98
12195;BME280;27023;42.680;23.132;2022-07-29T12:20:26;92225.69;;;26.03;82.50
12195;BME280;27023;42.680;23.132;2022-07-29T12:22:54;92220.47;;;26.31;79.89
12195;BME280;27023;42.680;23.132;2022-07-29T12:25:23;92219.38;;;26.72;80.31
12195;BME280;27023;42.680;23.132;2022-07-29T12:27:59;92216.75;;;26.81;84.29
12195;BME280;27023;42.680;23.132;2022-07-29T12:30:37;92211.34;;;27.30;73.89
12195;BME280;27023;42.680;23.132;2022-07-29T12:33:17;92211.69;;;27.41;75.08
12195;BME280;27023;42.680;23.132;2022-07-29T12:35:46;92208.28;;;27.59;81.70
12195;BME280;27023;42.680;23.132;2022-07-29T12:38:14;92208.16;;;27.81;76.18
12195;BME280;27023;42.680;23.132;2022-07-29T12:40:42;92206.50;;;27.93;74.65
12195;BME280;27023;42.680;23.132;2022-07-29T12:43:11;92194.34;;;28.25;72.01
12195;BME280;27023;42.680;23.132;2022-07-29T12:45:41;92200.44;;;28.62;69.62
12195;BME280;27023;42.680;23.132;2022-07-29T12:48:08;92196.50;;;29.14;70.16
12195;BME280;27023;42.680;23.132;2022-07-29T12:50:36;92202.09;;;29.44;67.31
12195;BME280;27023;42.680;23.132;2022-07-29T12:53:11;92196.03;;;29.49;65.52
12195;BME280;27023;42.680;23.132;2022-07-29T12:55:42;92194.81;;;28.84;63.07
12195;BME280;27023;42.680;23.132;2022-07-29T12:58:10;92191.03;;;28.81;66.15